createdAt,value
2022-10-23T00:00:28.288Z,100322.63
2022-10-23T00:01:32.306Z,100310.28
2022-10-23T00:02:33.825Z,100311.94
2022-10-23T00:03:35.363Z,100312.53
2022-10-23T00:04:36.864Z,100307.72
2022-10-23T00:05:39.401Z,100304.38
2022-10-23T00:06:40.896Z,100307.19
2022-10-23T00:07:42.326Z,100301.88
2022-10-23T00:08:43.891Z,100303.84
2022-10-23T00:09:45.343Z,100304.16
2022-10-23T00:10:46.868Z,100294.88
2022-10-23T00:11:48.579Z,100294.88
2022-10-23T00:12:50.115Z,100291.25
2022-10-23T00:13:51.663Z,100292.06
2022-10-23T00:14:53.156Z,100287.59
2022-10-23T00:15:54.622Z,100286.75
2022-10-23T00:16:56.077Z,100289.56
2022-10-23T00:17:57.835Z,100291.53
2022-10-23T00:18:59.307Z,100287.06
2022-10-23T00:20:01.006Z,100286.22
2022-10-23T00:21:02.639Z,100291.03
2022-10-23T00:22:04.179Z,100283.72
2022-10-23T00:23:05.595Z,100283.72
2022-10-23T00:25:11.043Z,100278.09
2022-10-23T00:26:15.711Z,100274.72
2022-10-23T00:27:17.165Z,100279.50
2022-10-23T00:28:18.718Z,100277.00
2022-10-23T00:29:20.216Z,100282.63
2022-10-23T00:30:21.679Z,100276.16
2022-10-23T00:31:23.355Z,100277.31
2022-10-23T00:32:24.855Z,100278.44
2022-10-23T00:33:26.376Z,100278.16
2022-10-23T00:34:27.968Z,100275.63
2022-10-23T00:35:29.443Z,100280.13
2022-10-23T00:36:31.006Z,100270.00
2022-10-23T00:37:32.449Z,100288.03
2022-10-23T00:38:34.158Z,100281.88
2022-10-23T00:39:35.691Z,100281.03
2022-10-23T00:40:37.427Z,100283.03
2022-10-23T00:41:38.936Z,100283.34
2022-10-23T00:42:40.576Z,100267.56
2022-10-23T00:44:14.352Z,100270.09
2022-10-23T00:45:18.857Z,100268.44
2022-10-23T00:46:20.386Z,100265.88
2022-10-23T00:47:21.876Z,100256.91
2022-10-23T00:48:23.364Z,100266.50
2022-10-23T00:49:25.592Z,100264.53
2022-10-23T00:50:27.511Z,100261.72
2022-10-23T00:51:29.774Z,100261.72
2022-10-23T00:52:31.329Z,100260.88
2022-10-23T00:53:32.778Z,100269.63
2022-10-23T00:54:34.980Z,100265.66
2022-10-23T00:55:36.734Z,100262.84
2022-10-23T00:56:38.710Z,100258.38
2022-10-23T00:57:41.099Z,100258.69
2022-10-23T00:58:42.599Z,100254.19
2022-10-23T00:59:44.075Z,100251.69
2022-10-23T01:00:45.553Z,100245.22
2022-10-23T01:01:47.300Z,100237.63
2022-10-23T01:02:49.000Z,100243.25
2022-10-23T01:03:50.529Z,100243.56
2022-10-23T01:04:51.961Z,100245.22
2022-10-23T01:05:53.389Z,100247.19
2022-10-23T01:07:06.042Z,100250.00
2022-10-23T01:08:17.646Z,100244.38
2022-10-23T01:09:22.063Z,100249.19
2022-10-23T01:10:29.496Z,100250.00
2022-10-23T01:11:33.395Z,100252.28
2022-10-23T01:12:37.489Z,100255.06
2022-10-23T01:13:48.410Z,100252.56
2022-10-23T01:15:01.458Z,100253.72
2022-10-23T01:16:07.575Z,100257.66
2022-10-23T01:17:11.904Z,100249.22
2022-10-23T01:18:22.091Z,100256.84
2022-10-23T01:19:44.210Z,100255.16
2022-10-23T01:20:47.216Z,100239.47
2022-10-23T01:22:14.761Z,100249.84
2022-10-23T01:23:22.249Z,100247.88
2022-10-23T01:24:27.437Z,100252.66
2022-10-23T01:25:37.974Z,100247.03
2022-10-23T01:26:46.866Z,100246.19
2022-10-23T01:27:51.107Z,100250.16
2022-10-23T01:29:03.731Z,100247.34
2022-10-23T01:30:17.114Z,100242.84
2022-10-23T01:31:24.989Z,100240.03
2022-10-23T01:32:32.342Z,100252.13
2022-10-23T01:33:36.447Z,100249.59
2022-10-23T01:34:48.246Z,100248.75
2022-10-23T01:35:50.700Z,100250.72
2022-10-23T01:36:52.166Z,100242.28
2022-10-23T01:37:55.082Z,100249.06
2022-10-23T01:38:58.433Z,100253.53
2022-10-23T01:40:01.228Z,100255.53
2022-10-23T01:41:04.207Z,100257.50
2022-10-23T01:42:07.728Z,100249.06
2022-10-23T01:43:13.715Z,100252.97
2022-10-23T01:44:16.774Z,100249.06
2022-10-23T01:45:38.535Z,100244.28
2022-10-23T01:46:42.031Z,100246.53
2022-10-23T01:47:45.157Z,100251.31
2022-10-23T01:48:54.638Z,100238.41
2022-10-23T01:49:57.624Z,100248.81
2022-10-23T01:51:02.962Z,100242.34
2022-10-23T01:52:07.392Z,100244.63
2022-10-23T01:53:09.926Z,100228.91
2022-10-23T01:54:12.082Z,100230.88
2022-10-23T01:55:13.958Z,100222.75
2022-10-23T01:56:16.121Z,100214.63
2022-10-23T01:57:17.988Z,100209.34
2022-10-23T01:58:21.080Z,100206.47
2022-10-23T01:59:25.532Z,100212.09
2022-10-23T02:00:27.566Z,100199.16
2022-10-23T02:01:29.467Z,100192.69
2022-10-23T02:02:31.157Z,100196.66
2022-10-23T02:03:32.935Z,100199.78
2022-10-23T02:04:35.865Z,100204.56
2022-10-23T02:05:39.246Z,100207.66
2022-10-23T02:06:41.016Z,100209.97
2022-10-23T02:07:42.792Z,100211.41
2022-10-23T02:08:44.443Z,100212.53
2022-10-23T02:09:45.956Z,100212.84
2022-10-23T02:11:07.671Z,100219.56
2022-10-23T02:12:09.897Z,100215.09
2022-10-23T02:13:30.034Z,100215.41
2022-10-23T02:14:37.823Z,100211.75
2022-10-23T02:15:49.044Z,100211.22
2022-10-23T02:16:51.498Z,100224.44
2022-10-23T02:18:09.768Z,100223.59
2022-10-23T02:19:25.417Z,100216.31
2022-10-23T02:20:37.317Z,100216.84
2022-10-23T02:21:38.848Z,100209.56
2022-10-23T02:22:41.186Z,100205.06
2022-10-23T02:23:56.743Z,100207.88
2022-10-23T02:25:06.907Z,100205.91
2022-10-23T02:26:10.342Z,100205.06
2022-10-23T02:27:13.015Z,100207.34
2022-10-23T02:28:15.896Z,100212.44
2022-10-23T02:29:30.432Z,100212.44
2022-10-23T02:30:34.581Z,100209.63
2022-10-23T02:31:43.731Z,100212.72
2022-10-23T02:32:46.521Z,100207.69
2022-10-23T02:33:48.420Z,100214.16
2022-10-23T02:34:50.028Z,100206.03
2022-10-23T02:35:52.421Z,100207.69
2022-10-23T02:36:56.482Z,100202.91
2022-10-23T02:37:59.159Z,100205.19
2022-10-23T02:39:02.279Z,100207.69
2022-10-23T02:40:04.025Z,100201.25
2022-10-23T02:41:19.389Z,100203.22
2022-10-23T02:42:28.664Z,100204.88
2022-10-23T02:43:32.378Z,100202.09
2022-10-23T02:44:39.809Z,100191.69
2022-10-23T02:45:46.875Z,100193.66
2022-10-23T02:46:50.952Z,100202.91
2022-10-23T02:47:55.267Z,100201.56
2022-10-23T02:49:09.703Z,100204.34
2022-10-23T02:50:11.279Z,100209.16
2022-10-23T02:51:21.074Z,100207.47
2022-10-23T02:52:43.327Z,100208.63
2022-10-23T02:53:51.465Z,100198.50
2022-10-23T02:54:58.956Z,100190.38
2022-10-23T02:56:00.411Z,100187.56
2022-10-23T02:57:01.905Z,100185.06
2022-10-23T02:58:09.358Z,100178.88
2022-10-23T02:59:53.505Z,100190.13
2022-10-23T03:00:56.222Z,100191.56
2022-10-23T03:02:02.918Z,100191.56
2022-10-23T03:03:11.807Z,100189.06
2022-10-23T03:04:13.330Z,100189.91
2022-10-23T03:05:16.538Z,100189.06
2022-10-23T03:06:18.039Z,100177.81
2022-10-23T03:07:19.658Z,100185.13
2022-10-23T03:08:21.193Z,100190.72
2022-10-23T03:09:22.673Z,100182.31
2022-10-23T03:10:24.431Z,100183.44
2022-10-23T03:11:26.103Z,100181.47
2022-10-23T03:12:27.685Z,100177.81
2022-10-23T03:13:29.191Z,100172.19
2022-10-23T03:14:30.648Z,100172.19
2022-10-23T03:15:32.198Z,100164.91
2022-10-23T03:16:33.682Z,100155.34
2022-10-23T03:17:35.123Z,100160.97
2022-10-23T03:18:37.162Z,100152.00
2022-10-23T03:19:38.671Z,100150.03
2022-10-23T03:20:40.137Z,100146.38
2022-10-23T03:21:41.622Z,100149.19
2022-10-23T03:22:43.742Z,100147.84
2022-10-23T03:23:45.426Z,100165.53
2022-10-23T03:24:52.177Z,100161.03
2022-10-23T03:25:53.681Z,100167.81
2022-10-23T03:27:11.712Z,100169.78
2022-10-23T03:28:13.301Z,100166.97
2022-10-23T03:29:14.799Z,100167.25
2022-10-23T03:30:19.480Z,100162.75
2022-10-23T03:31:24.910Z,100163.91
2022-10-23T03:32:31.171Z,100158.28
2022-10-23T03:33:34.568Z,100161.09
2022-10-23T03:34:44.345Z,100157.44
2022-10-23T03:35:45.872Z,100148.19
2022-10-23T03:36:49.825Z,100150.16
2022-10-23T03:37:54.786Z,100163.38
2022-10-23T03:39:00.252Z,100159.72
2022-10-23T03:40:01.921Z,100167.31
2022-10-23T03:41:05.922Z,100167.63
2022-10-23T03:42:07.450Z,100160.63
2022-10-23T03:43:08.972Z,100161.47
2022-10-23T03:44:12.475Z,100158.97
2022-10-23T03:45:18.981Z,100163.44
2022-10-23T03:46:22.202Z,100158.97
2022-10-23T03:47:27.939Z,100153.63
2022-10-23T03:48:29.447Z,100157.28
2022-10-23T03:49:33.369Z,100164.00
2022-10-23T03:50:39.435Z,100161.19
2022-10-23T03:51:41.786Z,100166.81
2022-10-23T03:52:43.574Z,100165.44
2022-10-23T03:53:47.158Z,100170.53
2022-10-23T03:54:50.383Z,100168.88
2022-10-23T03:55:52.269Z,100158.78
2022-10-23T03:56:56.631Z,100161.56
2022-10-23T03:57:59.231Z,100164.38
2022-10-23T03:59:00.825Z,100169.16
2022-10-23T04:00:02.320Z,100165.22
2022-10-23T04:01:07.524Z,100170.31
2022-10-23T04:02:10.608Z,100179.88
2022-10-23T04:03:12.098Z,100175.69
2022-10-23T04:04:13.715Z,100172.31
2022-10-23T04:05:17.963Z,100182.72
2022-10-23T04:06:27.988Z,100179.06
2022-10-23T04:07:32.058Z,100185.00
2022-10-23T04:08:36.329Z,100187.78
2022-10-23T04:09:42.331Z,100186.13
2022-10-23T04:10:49.740Z,100187.25
2022-10-23T04:11:55.485Z,100185.28
2022-10-23T04:13:00.364Z,100176.03
2022-10-23T04:14:02.324Z,100174.34
2022-10-23T04:15:04.006Z,100169.59
2022-10-23T04:16:05.540Z,100168.75
2022-10-23T04:17:07.145Z,100163.13
2022-10-23T04:18:08.926Z,100167.91
2022-10-23T04:19:10.442Z,100168.75
2022-10-23T04:20:11.949Z,100171.00
2022-10-23T04:21:13.421Z,100165.41
2022-10-23T04:22:14.944Z,100161.75
2022-10-23T04:23:16.579Z,100167.06
2022-10-23T04:24:19.298Z,100159.78
2022-10-23T04:25:21.043Z,100171.84
2022-10-23T04:26:22.520Z,100170.47
2022-10-23T04:27:24.048Z,100171.63
2022-10-23T04:28:25.685Z,100163.19
2022-10-23T04:29:29.422Z,100166.00
2022-10-23T04:30:31.767Z,100166.00
2022-10-23T04:31:33.230Z,100164.88
2022-10-23T04:32:34.771Z,100163.19
2022-10-23T04:33:36.310Z,100171.63
2022-10-23T04:34:37.823Z,100174.69
2022-10-23T04:35:39.316Z,100177.81
2022-10-23T04:36:40.838Z,100164.88
2022-10-23T04:37:45.149Z,100170.50
2022-10-23T04:38:47.877Z,100171.63
2022-10-23T04:39:49.467Z,100168.81
2022-10-23T04:40:50.956Z,100170.78
2022-10-23T04:41:56.086Z,100171.09
2022-10-23T04:42:59.880Z,100165.47
2022-10-23T04:44:04.821Z,100165.47
2022-10-23T04:45:08.255Z,100157.06
2022-10-23T04:46:10.382Z,100157.88
2022-10-23T04:47:11.851Z,100155.06
2022-10-23T04:48:25.554Z,100153.41
2022-10-23T04:49:48.815Z,100146.97
2022-10-23T04:51:16.379Z,100144.16
2022-10-23T04:52:36.570Z,100144.16
2022-10-23T04:53:57.694Z,100131.88
2022-10-23T04:55:34.515Z,100150.91
2022-10-23T04:56:46.992Z,100158.78
2022-10-23T04:57:52.350Z,100157.13
2022-10-23T04:58:57.855Z,100166.63
2022-10-23T04:59:59.519Z,100155.72
2022-10-23T05:01:01.245Z,100165.28
2022-10-23T05:02:03.703Z,100164.13
2022-10-23T05:03:05.238Z,100157.69
2022-10-23T05:04:11.937Z,100156.00
2022-10-23T05:05:33.502Z,100156.00
2022-10-23T05:06:40.635Z,100155.19
2022-10-23T05:08:00.766Z,100160.78
2022-10-23T05:09:22.495Z,100156.84
2022-10-23T05:10:38.496Z,100164.44
2022-10-23T05:11:44.731Z,100164.72
2022-10-23T05:12:46.271Z,100167.84
2022-10-23T05:13:47.818Z,100168.13
2022-10-23T05:14:49.378Z,100165.34
2022-10-23T05:15:51.151Z,100166.16
2022-10-23T05:16:57.345Z,100168.13
2022-10-23T05:18:00.098Z,100158.88
2022-10-23T05:19:01.598Z,100150.47
2022-10-23T05:20:04.013Z,100148.50
2022-10-23T05:21:10.295Z,100150.16
2022-10-23T05:22:15.277Z,100146.53
2022-10-23T05:23:22.535Z,100150.16
2022-10-23T05:24:33.546Z,100148.19
2022-10-23T05:25:37.143Z,100145.38
2022-10-23T05:26:48.379Z,100146.22
2022-10-23T05:27:50.275Z,100142.59
2022-10-23T05:28:51.796Z,100134.47
2022-10-23T05:29:53.391Z,100132.50
2022-10-23T05:30:59.082Z,100132.50
2022-10-23T05:32:02.786Z,100131.34
2022-10-23T05:33:05.595Z,100127.72
2022-10-23T05:34:13.525Z,100130.50
2022-10-23T05:35:19.367Z,100122.94
2022-10-23T05:36:22.933Z,100135.28
2022-10-23T05:37:30.220Z,100134.16
2022-10-23T05:38:41.831Z,100128.00
2022-10-23T05:39:50.410Z,100125.19
2022-10-23T05:40:52.446Z,100128.00
2022-10-23T05:41:55.671Z,100118.75
2022-10-23T05:42:59.406Z,100123.53
2022-10-23T05:44:21.181Z,100124.38
2022-10-23T05:45:41.454Z,100120.44
2022-10-23T05:46:55.963Z,100115.66
2022-10-23T05:48:30.136Z,100122.94
2022-10-23T05:50:01.054Z,100122.09
2022-10-23T05:51:22.439Z,100117.31
2022-10-23T05:52:50.376Z,100125.75
2022-10-23T05:54:24.140Z,100130.81
2022-10-23T05:55:51.771Z,100133.94
2022-10-23T05:58:20.205Z,100129.72
2022-10-23T05:59:34.314Z,100124.69
2022-10-23T06:00:49.452Z,100128.66
2022-10-23T06:02:10.940Z,100128.66
2022-10-23T06:03:24.834Z,100124.16
2022-10-23T06:04:27.031Z,100127.81
2022-10-23T06:05:51.901Z,100132.59
2022-10-23T06:06:58.266Z,100138.81
2022-10-23T06:08:00.150Z,100122.56
2022-10-23T06:09:02.549Z,100123.97
2022-10-23T06:10:05.797Z,100128.50
2022-10-23T06:11:11.412Z,100124.31
2022-10-23T06:12:13.240Z,100112.56
2022-10-23T06:13:19.130Z,100108.63
2022-10-23T06:14:21.274Z,100105.81
2022-10-23T06:15:25.077Z,100101.03
2022-10-23T06:16:40.420Z,100097.41
2022-10-23T06:17:42.643Z,100099.06
2022-10-23T06:18:44.550Z,100089.00
2022-10-23T06:19:49.590Z,100087.84
2022-10-23T06:20:52.923Z,100092.31
2022-10-23T06:22:00.672Z,100088.69
2022-10-23T06:23:15.476Z,100096.81
2022-10-23T06:24:35.219Z,100098.78
2022-10-23T06:25:39.212Z,100091.50
2022-10-23T06:26:40.800Z,100102.72
2022-10-23T06:27:45.567Z,100099.06
2022-10-23T06:28:47.323Z,100101.03
2022-10-23T06:29:49.013Z,100101.03
2022-10-23T06:30:50.678Z,100101.88
2022-10-23T06:31:52.231Z,100097.41
2022-10-23T06:32:54.126Z,100100.22
2022-10-23T06:33:55.874Z,100094.59
2022-10-23T06:34:57.809Z,100101.88
2022-10-23T06:36:00.550Z,100097.09
2022-10-23T06:37:02.378Z,100099.59
2022-10-23T06:38:21.123Z,100106.41
2022-10-23T06:39:31.238Z,100106.41
2022-10-23T06:40:54.484Z,100099.97
2022-10-23T06:42:03.407Z,100108.38
2022-10-23T06:43:31.106Z,100104.72
2022-10-23T06:44:57.509Z,100095.75
2022-10-23T06:46:22.008Z,100100.06
2022-10-23T06:47:38.411Z,100106.50
2022-10-23T06:48:46.547Z,100100.91
2022-10-23T06:49:55.441Z,100104.25
2022-10-23T06:50:57.330Z,100103.72
2022-10-23T06:52:14.530Z,100101.72
2022-10-23T06:53:30.455Z,100103.41
2022-10-23T06:54:40.830Z,100111.00
2022-10-23T06:55:54.624Z,100110.69
2022-10-23T06:56:57.591Z,100101.97
2022-10-23T06:58:10.719Z,100105.63
2022-10-23T06:59:23.198Z,100103.66
2022-10-23T07:00:26.726Z,100104.19
2022-10-23T07:01:28.806Z,100101.38
2022-10-23T07:02:33.209Z,100103.03
2022-10-23T07:03:34.855Z,100099.09
2022-10-23T07:04:41.178Z,100100.81
2022-10-23T07:05:48.934Z,100105.59
2022-10-23T07:06:50.714Z,100106.41
2022-10-23T07:07:58.709Z,100109.75
2022-10-23T07:09:02.890Z,100107.50
2022-10-23T07:10:22.985Z,100101.28
2022-10-23T07:11:35.355Z,100104.63
2022-10-23T07:12:36.877Z,100112.47
2022-10-23T07:14:01.335Z,100108.53
2022-10-23T07:15:03.674Z,100115.22
2022-10-23T07:16:18.076Z,100110.13
2022-10-23T07:17:19.839Z,100122.44
2022-10-23T07:18:21.945Z,100118.22
2022-10-23T07:19:42.407Z,100114.81
2022-10-23T07:20:49.476Z,100115.03
2022-10-23T07:21:51.162Z,100109.66
2022-10-23T07:23:09.589Z,100109.09
2022-10-23T07:24:13.315Z,100114.09
2022-10-23T07:25:15.072Z,100118.28
2022-10-23T07:26:16.931Z,100118.28
2022-10-23T07:27:18.507Z,100126.13
2022-10-23T07:28:21.890Z,100123.03
2022-10-23T07:29:23.710Z,100117.97
2022-10-23T07:30:25.290Z,100117.97
2022-10-23T07:31:29.816Z,100116.53
2022-10-23T07:32:51.328Z,100122.44
2022-10-23T07:34:18.779Z,100117.66
2022-10-23T07:35:24.991Z,100112.59
2022-10-23T07:36:49.617Z,100107.50
2022-10-23T07:37:51.142Z,100110.84
2022-10-23T07:38:54.102Z,100105.75
2022-10-23T07:39:56.236Z,100109.13
2022-10-23T07:40:59.272Z,100111.34
2022-10-23T07:42:00.827Z,100118.31
2022-10-23T07:43:02.857Z,100119.97
2022-10-23T07:44:05.330Z,100119.69
2022-10-23T07:45:07.610Z,100117.25
2022-10-23T07:46:11.049Z,100106.25
2022-10-23T07:47:14.275Z,100114.06
2022-10-23T07:48:19.318Z,100105.03
2022-10-23T07:49:32.810Z,100112.03
2022-10-23T07:50:34.934Z,100107.78
2022-10-23T07:51:36.728Z,100103.53
2022-10-23T07:52:38.913Z,100106.88
2022-10-23T07:53:45.898Z,100112.19
2022-10-23T07:55:10.775Z,100113.03
2022-10-23T07:56:20.844Z,100124.50
2022-10-23T07:57:51.659Z,100127.84
2022-10-23T07:59:11.454Z,100109.34
2022-10-23T08:00:13.234Z,100106.53
2022-10-23T08:01:33.966Z,100112.66
2022-10-23T08:02:36.250Z,100110.38
2022-10-23T08:03:37.779Z,100109.78
2022-10-23T08:04:39.397Z,100105.25
2022-10-23T08:06:04.591Z,100098.47
2022-10-23T08:07:06.090Z,100100.06
2022-10-23T08:08:13.802Z,100090.75
2022-10-23T08:09:18.523Z,100077.44
2022-10-23T08:10:20.254Z,100079.56
2022-10-23T08:11:27.083Z,100075.00
2022-10-23T08:12:29.786Z,100081.38
2022-10-23T08:13:31.586Z,100092.56
2022-10-23T08:14:37.482Z,100086.53
2022-10-23T08:15:39.030Z,100084.50
2022-10-23T08:16:49.793Z,100070.06
2022-10-23T08:17:51.262Z,100064.88
2022-10-23T08:19:09.093Z,100073.97
2022-10-23T08:20:13.715Z,100078.56
2022-10-23T08:21:17.409Z,100072.25
2022-10-23T08:22:19.710Z,100069.25
2022-10-23T08:23:22.152Z,100061.75
2022-10-23T08:24:23.936Z,100052.50
2022-10-23T08:25:26.178Z,100068.00
2022-10-23T08:26:29.474Z,100067.59
2022-10-23T08:27:31.139Z,100069.94
2022-10-23T08:28:33.079Z,100059.06
2022-10-23T08:29:36.042Z,100057.19
2022-10-23T08:30:37.735Z,100064.91
2022-10-23T08:31:40.180Z,100056.31
2022-10-23T08:33:05.244Z,100046.81
2022-10-23T08:34:07.564Z,100053.06
2022-10-23T08:35:09.277Z,100058.97
2022-10-23T08:36:24.561Z,100060.19
2022-10-23T08:37:26.042Z,100064.09
2022-10-23T08:38:27.563Z,100066.19
2022-10-23T08:39:29.080Z,100065.31
2022-10-23T08:40:47.180Z,100061.06
2022-10-23T08:42:15.886Z,100058.00
2022-10-23T08:43:22.215Z,100072.09
2022-10-23T08:44:38.881Z,100072.28
2022-10-23T08:45:48.577Z,100064.97
2022-10-23T08:47:10.151Z,100067.81
2022-10-23T08:48:30.967Z,100070.94
2022-10-23T08:49:55.944Z,100082.56
2022-10-23T08:51:08.791Z,100076.09
2022-10-23T08:52:28.869Z,100066.25
2022-10-23T08:53:36.663Z,100068.78
2022-10-23T08:54:50.382Z,100067.13
2022-10-23T08:55:55.128Z,100056.94
2022-10-23T08:57:16.831Z,100064.91
2022-10-23T08:58:29.681Z,100053.63
2022-10-23T08:59:37.983Z,100054.78
2022-10-23T09:00:39.519Z,100044.22
2022-10-23T09:01:42.246Z,100043.47
2022-10-23T09:02:47.405Z,100046.00
2022-10-23T09:03:48.888Z,100046.38
2022-10-23T09:04:50.651Z,100044.25
2022-10-23T09:05:55.216Z,100047.97
2022-10-23T09:06:56.722Z,100052.81
2022-10-23T09:08:01.430Z,100058.31
2022-10-23T09:09:09.182Z,100058.69
2022-10-23T09:10:31.448Z,100047.75
2022-10-23T09:11:33.128Z,100045.31
2022-10-23T09:12:34.546Z,100037.84
2022-10-23T09:13:36.191Z,100039.41
2022-10-23T09:14:53.131Z,100043.88
2022-10-23T09:16:00.663Z,100037.41
2022-10-23T09:17:09.078Z,100041.06
2022-10-23T09:18:14.295Z,100041.69
2022-10-23T09:19:16.792Z,100034.03
2022-10-23T09:20:19.901Z,100032.06
2022-10-23T09:21:26.467Z,100032.91
2022-10-23T09:22:29.044Z,100032.59
2022-10-23T09:23:30.549Z,100032.91
2022-10-23T09:24:33.430Z,100033.00
2022-10-23T09:25:35.468Z,100030.16
2022-10-23T09:26:37.085Z,100036.31
2022-10-23T09:27:38.719Z,100031.84
2022-10-23T09:28:49.942Z,100031.97
2022-10-23T09:29:52.983Z,100023.66
2022-10-23T09:30:55.136Z,100024.97
2022-10-23T09:31:57.230Z,100026.31
2022-10-23T09:32:59.272Z,100025.31
2022-10-23T09:34:01.402Z,100027.84
2022-10-23T09:35:02.915Z,100025.84
2022-10-23T09:36:05.456Z,100025.53
2022-10-23T09:37:21.399Z,100030.81
2022-10-23T09:38:33.602Z,100029.31
2022-10-23T09:39:35.515Z,100033.50
2022-10-23T09:40:37.245Z,100022.19
2022-10-23T09:41:39.325Z,100027.19
2022-10-23T09:42:50.087Z,100031.69
2022-10-23T09:44:00.599Z,100031.03
2022-10-23T09:45:02.322Z,100032.69
2022-10-23T09:46:05.177Z,100025.03
2022-10-23T09:47:07.915Z,100019.09
2022-10-23T09:48:16.500Z,100022.75
2022-10-23T09:49:19.354Z,100034.88
2022-10-23T09:50:21.517Z,100030.91
2022-10-23T09:51:23.010Z,100016.47
2022-10-23T09:52:25.658Z,100021.28
2022-10-23T09:53:34.239Z,100022.94
2022-10-23T09:54:48.971Z,100025.78
2022-10-23T09:55:53.967Z,100018.13
2022-10-23T09:56:56.043Z,100024.59
2022-10-23T09:57:57.554Z,100022.94
2022-10-23T09:59:00.091Z,100004.00
2022-10-23T10:00:02.163Z,100002.00
2022-10-23T10:01:23.004Z,100003.16
2022-10-23T10:02:27.889Z,100005.34
2022-10-23T10:03:51.224Z,100006.50
2022-10-23T10:04:56.042Z,100012.66
2022-10-23T10:06:01.390Z,100007.81
2022-10-23T10:07:03.706Z,100004.66
2022-10-23T10:08:05.116Z,100005.50
2022-10-23T10:09:14.162Z,100013.31
2022-10-23T10:10:15.782Z,100007.66
2022-10-23T10:11:21.897Z,100010.19
2022-10-23T10:12:41.765Z,100017.50
2022-10-23T10:13:52.603Z,100015.16
2022-10-23T10:15:11.543Z,100001.53
2022-10-23T10:16:16.263Z,100006.03
2022-10-23T10:17:38.374Z,100013.34
2022-10-23T10:18:39.815Z,100006.84
2022-10-23T10:19:48.417Z,100004.53
2022-10-23T10:20:49.923Z,100015.84
2022-10-23T10:21:51.425Z,100008.69
2022-10-23T10:23:01.367Z,100005.84
2022-10-23T10:24:05.215Z,100011.50
2022-10-23T10:25:21.857Z,100010.38
2022-10-23T10:27:55.096Z,100010.03
2022-10-23T10:29:10.791Z,100008.88
2022-10-23T10:30:24.482Z,100013.38
2022-10-23T10:31:34.660Z,100012.22
2022-10-23T10:32:57.832Z,100013.03
2022-10-23T10:34:08.004Z,100003.38
2022-10-23T10:35:24.720Z,100009.03
2022-10-23T10:36:32.783Z,100003.88
2022-10-23T10:37:34.242Z,100002.72
2022-10-23T10:38:39.340Z,99983.75
2022-10-23T10:40:00.777Z,99993.06
2022-10-23T10:41:19.947Z,99987.97
2022-10-23T10:42:24.536Z,99990.13
2022-10-23T10:44:04.551Z,99989.44
2022-10-23T10:45:08.827Z,99976.28
2022-10-23T10:47:26.139Z,99975.63
2022-10-23T10:48:42.954Z,99965.66
2022-10-23T10:49:56.182Z,99956.69
2022-10-23T10:51:08.173Z,99960.00
2022-10-23T10:52:26.726Z,99965.66
2022-10-23T10:53:33.909Z,99967.81
2022-10-23T10:54:43.924Z,99957.66
2022-10-23T10:55:47.147Z,99959.31
2022-10-23T10:56:48.671Z,99955.59
2022-10-23T10:57:57.991Z,99949.91
2022-10-23T10:59:02.057Z,99943.41
2022-10-23T11:00:05.583Z,99946.53
2022-10-23T11:01:27.654Z,99949.34
2022-10-23T11:02:31.610Z,99947.66
2022-10-23T11:03:40.282Z,99949.47
2022-10-23T11:04:51.195Z,99950.94
2022-10-23T11:05:52.733Z,99939.44
2022-10-23T11:06:54.287Z,99943.91
2022-10-23T11:07:57.839Z,99943.56
2022-10-23T11:09:19.285Z,99943.91
2022-10-23T11:10:21.811Z,99947.44
2022-10-23T11:11:29.588Z,99944.78
2022-10-23T11:12:31.088Z,99951.47
2022-10-23T11:13:36.547Z,99946.00
2022-10-23T11:14:38.093Z,99951.81
2022-10-23T11:15:40.155Z,99946.00
2022-10-23T11:16:42.642Z,99952.16
2022-10-23T11:17:45.915Z,99940.34
2022-10-23T11:19:11.430Z,99939.53
2022-10-23T11:20:15.658Z,99922.88
2022-10-23T11:21:17.379Z,99928.72
2022-10-23T11:22:21.851Z,99931.41
2022-10-23T11:23:49.571Z,99941.06
2022-10-23T11:24:52.372Z,99935.25
2022-10-23T11:25:59.251Z,99927.59
2022-10-23T11:27:19.759Z,99925.72
2022-10-23T11:28:24.298Z,99921.38
2022-10-23T11:29:27.755Z,99900.88
2022-10-23T11:30:46.479Z,99901.38
2022-10-23T11:32:06.724Z,99907.34
2022-10-23T11:33:13.981Z,99917.97
2022-10-23T11:34:21.197Z,99914.31
2022-10-23T11:35:32.009Z,99911.28
2022-10-23T11:36:43.441Z,99912.75
2022-10-23T11:37:45.072Z,99910.88
2022-10-23T11:38:47.754Z,99905.69
2022-10-23T11:40:03.144Z,99907.34
2022-10-23T11:41:05.725Z,99911.88
2022-10-23T11:42:07.174Z,99910.50
2022-10-23T11:43:08.655Z,99918.78
2022-10-23T11:44:22.870Z,99917.13
2022-10-23T11:45:31.273Z,99921.13
2022-10-23T11:46:33.898Z,99921.44
2022-10-23T11:47:39.621Z,99911.75
2022-10-23T11:48:42.090Z,99905.38
2022-10-23T11:49:43.576Z,99901.03
2022-10-23T11:50:44.977Z,99901.84
2022-10-23T11:51:46.483Z,99904.03
2022-10-23T11:53:12.953Z,99909.00
2022-10-23T11:54:15.258Z,99903.59
2022-10-23T11:55:18.378Z,99890.41
2022-10-23T11:56:19.784Z,99887.56
2022-10-23T11:57:22.219Z,99894.19
2022-10-23T11:58:31.349Z,99887.47
2022-10-23T11:59:33.961Z,99877.59
2022-10-23T12:00:38.548Z,99864.03
2022-10-23T12:01:41.692Z,99860.31
2022-10-23T12:02:43.550Z,99854.91
2022-10-23T12:03:48.039Z,99847.34
2022-10-23T12:04:50.538Z,99851.94
2022-10-23T12:06:02.544Z,99848.75
2022-10-23T12:07:05.349Z,99844.19
2022-10-23T12:08:07.828Z,99854.47
2022-10-23T12:09:22.223Z,99851.16
2022-10-23T12:10:26.608Z,99854.94
2022-10-23T12:11:48.441Z,99855.53
2022-10-23T12:12:56.939Z,99848.19
2022-10-23T12:13:58.698Z,99842.16
2022-10-23T12:15:07.487Z,99848.66
2022-10-23T12:16:08.982Z,99838.63
2022-10-23T12:17:22.613Z,99847.13
2022-10-23T12:18:24.810Z,99842.16
2022-10-23T12:19:27.414Z,99843.81
2022-10-23T12:20:49.459Z,99841.00
2022-10-23T12:21:51.662Z,99845.00
2022-10-23T12:23:11.530Z,99836.03
2022-10-23T12:24:23.182Z,99833.91
2022-10-23T12:25:28.158Z,99825.38
2022-10-23T12:26:41.622Z,99820.03
2022-10-23T12:28:03.731Z,99820.19
2022-10-23T12:29:08.916Z,99829.88
2022-10-23T12:30:22.841Z,99822.03
2022-10-23T12:31:30.283Z,99826.56
2022-10-23T12:32:39.782Z,99829.41
2022-10-23T12:33:43.254Z,99827.72
2022-10-23T12:34:53.540Z,99814.69
2022-10-23T12:36:07.307Z,99811.88
2022-10-23T12:37:17.911Z,99807.38
2022-10-23T12:38:20.463Z,99794.84
2022-10-23T12:39:25.588Z,99793.81
2022-10-23T12:40:29.961Z,99788.50
2022-10-23T12:41:31.771Z,99792.00
2022-10-23T12:42:33.655Z,99790.81
2022-10-23T12:43:35.760Z,99794.63
2022-10-23T12:44:37.296Z,99800.31
2022-10-23T12:45:39.970Z,99796.16
2022-10-23T12:46:48.342Z,99791.44
2022-10-23T12:47:49.921Z,99810.84
2022-10-23T12:48:52.078Z,99803.50
2022-10-23T12:49:53.727Z,99811.88